Time,TemperatureF,DewpointF,PressureIn,WindDirection,WindDirectionDegrees,WindSpeedMPH,WindSpeedGustMPH,Humidity,HourlyPrecipIn,Conditions,Clouds,dailyrainin,SolarRadiationWatts/m^2,SoftwareType,DateUTC
2013-01-03 00:03:00,28.6,23.2,30.43,NNW,338,0.0,0.0,80,0.00,,---,0.00,0.00,VWS V14.01,2013-01-03 06:03:00,
2013-01-03 00:08:00,28.7,23.6,30.43,NNW,338,0.0,0.0,81,0.00,,---,0.00,0.00,VWS V14.01,2013-01-03 06:08:00,
2013-01-03 00:13:00,28.5,23.4,30.43,NNW,338,0.0,0.0,81,0.00,,---,0.00,0.00,VWS V14.01,2013-01-03 06:13:00,
2013-01-03 00:18:00,28.7,23.9,30.43,NNW,338,0.0,0.0,82,0.00,,---,0.00,0.00,VWS V14.01,2013-01-03 06:18:00,
2013-01-03 00:23:00,28.6,23.5,30.44,NNW,338,0.0,2.0,81,0.00,,---,0.00,0.00,VWS V14.01,2013-01-03 06:23:00,
2013-01-03 00:28:00,28.6,23.8,30.43,NNW,338,3.0,3.0,82,0.00,,---,0.00,0.00,VWS V14.01,2013-01-03 06:28:00,
2013-01-03 00:33:00,29.2,24.1,30.44,NNW,336,3.0,4.0,81,0.00,,---,0.00,0.00,VWS V14.01,2013-01-03 06:33:00,
2013-01-03 00:38:00,28.7,23.3,30.44,NNW,335,0.0,4.0,80,0.00,,---,0.00,0.00,VWS V14.01,2013-01-03 06:38:00,
2013-01-03 00:43:00,28.2,22.8,30.43,NNW,335,0.0,4.0,80,0.00,,---,0.00,0.00,VWS V14.01,2013-01-03 06:43:00,
2013-01-03 00:48:00,27.7,22.6,30.43,NNW,335,0.0,4.0,81,0.00,,---,0.00,0.00,VWS V14.01,2013-01-03 06:48:00,
2013-01-03 00:53:00,27.2,22.1,30.43,NNW,335,0.0,4.0,81,0.00,,---,0.00,0.00,VWS V14.01,2013-01-03 06:53:00,
2013-01-03 00:58:00,26.9,22.1,30.43,NNW,335,0.0,4.0,82,0.00,,---,0.00,0.00,VWS V14.01,2013-01-03 06:58:00,
2013-01-03 01:03:00,26.7,22.0,30.43,NNW,335,0.0,0.0,82,0.00,,---,0.00,0.00,VWS V14.01,2013-01-03 07:03:00,
2013-01-03 01:08:00,25.9,21.2,30.43,NNW,335,0.0,0.0,82,0.00,,---,0.00,0.00,VWS V14.01,2013-01-03 07:08:00,
2013-01-03 01:13:00,25.2,20.8,30.43,NNW,335,0.0,0.0,83,0.00,,---,0.00,0.00,VWS V14.01,2013-01-03 07:13:00,
2013-01-03 01:18:00,24.5,20.1,30.43,NNW,335,0.0,0.0,83,0.00,,---,0.00,0.00,VWS V14.01,2013-01-03 07:18:00,
2013-01-03 01:23:00,24.1,20.0,30.43,NNW,335,0.0,0.0,84,0.00,,---,0.00,0.00,VWS V14.01,2013-01-03 07:23:00,
2013-01-03 01:28:00,24.5,20.6,30.43,NNW,335,0.0,0.0,85,0.00,,---,0.00,0.00,VWS V14.01,2013-01-03 07:28:00,
2013-01-03 01:33:00,24.7,20.8,30.44,NNW,335,0.0,0.0,85,0.00,,---,0.00,0.00,VWS V14.01,2013-01-03 07:33:00,
2013-01-03 01:38:00,25.2,21.6,30.44,NNW,335,0.0,0.0,86,0.00,,---,0.00,0.00,VWS V14.01,2013-01-03 07:38:00,
2013-01-03 01:43:00,25.4,21.5,30.44,NNW,335,0.0,0.0,85,0.00,,---,0.00,0.00,VWS V14.01,2013-01-03 07:43:00,
2013-01-03 01:48:00,24.8,20.7,30.44,NNW,335,0.0,0.0,84,0.00,,---,0.00,0.00,VWS V14.01,2013-01-03 07:48:00,
2013-01-03 01:53:00,24.4,22.4,30.44,NNW,335,0.0,0.0,92,0.00,,---,0.00,0.00,VWS V14.01,2013-01-03 07:53:00,
2013-01-03 01:58:00,24.5,20.9,30.44,NNW,335,0.0,0.0,86,0.00,,---,0.00,0.00,VWS V14.01,2013-01-03 07:58:00,
2013-01-03 02:03:00,25.0,21.4,30.44,NNW,335,0.0,0.0,86,0.00,,---,0.00,0.00,VWS V14.01,2013-01-03 08:03:00,
2013-01-03 02:08:00,25.2,21.6,30.44,NNW,335,0.0,0.0,86,0.00,,---,0.00,0.00,VWS V14.01,2013-01-03 08:08:00,
2013-01-03 02:13:00,25.1,21.5,30.45,NNW,335,0.0,0.0,86,0.00,,---,0.00,0.00,VWS V14.01,2013-01-03 08:13:00,
2013-01-03 02:18:00,25.3,21.7,30.45,NNW,335,0.0,0.0,86,0.00,,---,0.00,0.00,VWS V14.01,2013-01-03 08:18:00,
2013-01-03 02:23:00,25.5,21.9,30.45,NNW,335,0.0,0.0,86,0.00,,---,0.00,0.00,VWS V14.01,2013-01-03 08:23:00,
2013-01-03 02:28:00,24.7,20.8,30.45,NNW,335,0.0,0.0,85,0.00,,---,0.00,0.00,VWS V14.01,2013-01-03 08:28:00,
2013-01-03 02:33:00,23.8,20.0,30.45,NNW,335,0.0,0.0,85,0.00,,---,0.00,0.00,VWS V14.01,2013-01-03 08:33:00,
2013-01-03 02:38:00,24.0,20.4,30.45,NNW,335,0.0,0.0,86,0.00,,---,0.00,0.00,VWS V14.01,2013-01-03 08:38:00,
2013-01-03 02:43:00,24.5,20.9,30.45,NNW,335,0.0,0.0,86,0.00,,---,0.00,0.00,VWS V14.01,2013-01-03 08:43:00,
2013-01-03 02:48:00,24.6,21.0,30.46,NNW,335,0.0,0.0,86,0.00,,---,0.00,0.00,VWS V14.01,2013-01-03 08:48:00,
2013-01-03 02:53:00,23.5,19.4,30.46,NNW,335,0.0,0.0,84,0.00,,---,0.00,0.00,VWS V14.01,2013-01-03 08:53:00,
2013-01-03 02:58:00,23.0,19.5,30.46,NNW,335,0.0,0.0,86,0.00,,---,0.00,0.00,VWS V14.01,2013-01-03 08:58:00,
2013-01-03 03:03:00,23.5,20.2,30.46,NNW,335,0.0,0.0,87,0.00,,---,0.00,0.00,VWS V14.01,2013-01-03 09:03:00,
2013-01-03 03:08:00,24.2,20.9,30.46,NNW,335,0.0,0.0,87,0.00,,---,0.00,0.00,VWS V14.01,2013-01-03 09:08:00,
2013-01-03 03:13:00,24.2,20.9,30.47,NNW,335,0.0,0.0,87,0.00,,---,0.00,0.00,VWS V14.01,2013-01-03 09:13:00,
2013-01-03 03:18:00,24.0,20.4,30.46,NNW,335,0.0,0.0,86,0.00,,---,0.00,0.00,VWS V14.01,2013-01-03 09:18:00,
2013-01-03 03:23:00,24.2,20.9,30.46,NNW,335,0.0,0.0,87,0.00,,---,0.00,0.00,VWS V14.01,2013-01-03 09:23:00,
2013-01-03 03:28:00,24.5,21.2,30.47,NNW,335,0.0,0.0,87,0.00,,---,0.00,0.00,VWS V14.01,2013-01-03 09:28:00,
2013-01-03 03:33:00,24.7,21.4,30.46,NNW,335,0.0,0.0,87,0.00,,---,0.00,0.00,VWS V14.01,2013-01-03 09:33:00,
2013-01-03 03:38:00,24.4,20.8,30.46,NNW,335,0.0,0.0,86,0.00,,---,0.00,0.00,VWS V14.01,2013-01-03 09:38:00,
2013-01-03 03:43:00,24.0,20.4,30.47,NNW,335,0.0,0.0,86,0.00,,---,0.00,0.00,VWS V14.01,2013-01-03 09:43:00,
2013-01-03 03:48:00,23.8,20.2,30.47,NNW,335,0.0,0.0,86,0.00,,---,0.00,0.00,VWS V14.01,2013-01-03 09:48:00,
2013-01-03 03:53:00,23.8,20.5,30.47,NNW,335,0.0,0.0,87,0.00,,---,0.00,0.00,VWS V14.01,2013-01-03 09:53:00,
2013-01-03 03:58:00,23.6,20.3,30.47,NNW,335,0.0,0.0,87,0.00,,---,0.00,0.00,VWS V14.01,2013-01-03 09:58:00,
2013-01-03 04:03:00,23.3,19.7,30.47,NNW,335,0.0,0.0,86,0.00,,---,0.00,0.00,VWS V14.01,2013-01-03 10:03:00,
2013-01-03 04:08:00,23.1,19.8,30.47,NNW,335,0.0,0.0,87,0.00,,---,0.00,0.00,VWS V14.01,2013-01-03 10:08:00,
2013-01-03 04:13:00,22.9,19.6,30.47,NNW,335,0.0,0.0,87,0.00,,---,0.00,0.00,VWS V14.01,2013-01-03 10:13:00,
2013-01-03 04:18:00,22.8,19.5,30.47,NNW,335,0.0,0.0,87,0.00,,---,0.00,0.00,VWS V14.01,2013-01-03 10:18:00,
2013-01-03 04:23:00,22.8,19.5,30.47,NNW,335,0.0,0.0,87,0.00,,---,0.00,0.00,VWS V14.01,2013-01-03 10:23:00,
2013-01-03 04:28:00,22.7,19.4,30.47,NNW,335,0.0,0.0,87,0.00,,---,0.00,0.00,VWS V14.01,2013-01-03 10:28:00,
2013-01-03 04:33:00,22.8,19.5,30.47,NNW,335,0.0,0.0,87,0.00,,---,0.00,0.00,VWS V14.01,2013-01-03 10:33:00,
2013-01-03 04:38:00,23.1,20.1,30.47,NNW,335,0.0,0.0,88,0.00,,---,0.00,0.00,VWS V14.01,2013-01-03 10:38:00,
2013-01-03 04:43:00,23.4,20.4,30.48,NNW,335,0.0,0.0,88,0.00,,---,0.00,0.00,VWS V14.01,2013-01-03 10:43:00,
2013-01-03 04:48:00,23.4,20.4,30.48,NNW,335,0.0,0.0,88,0.00,,---,0.00,0.00,VWS V14.01,2013-01-03 10:48:00,
2013-01-03 04:53:00,23.4,20.1,30.48,NNW,335,0.0,0.0,87,0.00,,---,0.00,0.00,VWS V14.01,2013-01-03 10:53:00,
2013-01-03 04:58:00,23.1,19.8,30.48,NNW,335,0.0,0.0,87,0.00,,---,0.00,0.00,VWS V14.01,2013-01-03 10:58:00,
2013-01-03 05:03:00,23.0,19.7,30.48,NNW,335,0.0,0.0,87,0.00,,---,0.00,0.00,VWS V14.01,2013-01-03 11:03:00,
2013-01-03 05:08:00,23.0,19.7,30.48,NNW,335,0.0,0.0,87,0.00,,---,0.00,0.00,VWS V14.01,2013-01-03 11:08:00,
2013-01-03 05:13:00,23.0,19.7,30.48,NNW,335,0.0,0.0,87,0.00,,---,0.00,0.00,VWS V14.01,2013-01-03 11:13:00,
2013-01-03 05:18:00,23.0,21.8,30.48,NNW,335,0.0,0.0,95,0.00,,---,0.00,0.00,VWS V14.01,2013-01-03 11:18:00,
2013-01-03 05:23:00,23.0,19.7,30.49,NNW,335,0.0,0.0,87,0.00,,---,0.00,0.00,VWS V14.01,2013-01-03 11:23:00,
2013-01-03 05:28:00,22.8,19.5,30.49,NNW,335,0.0,0.0,87,0.00,,---,0.00,0.00,VWS V14.01,2013-01-03 11:28:00,
2013-01-03 05:33:00,22.7,19.4,30.49,NNW,335,0.0,0.0,87,0.00,,---,0.00,0.00,VWS V14.01,2013-01-03 11:33:00,
2013-01-03 05:38:00,22.7,19.4,30.49,NNW,335,0.0,0.0,87,0.00,,---,0.00,0.00,VWS V14.01,2013-01-03 11:38:00,
2013-01-03 05:43:00,22.6,19.3,30.49,NNW,335,0.0,0.0,87,0.00,,---,0.00,0.00,VWS V14.01,2013-01-03 11:43:00,
2013-01-03 05:48:00,22.6,19.3,30.50,NNW,335,0.0,0.0,87,0.00,,---,0.00,0.00,VWS V14.01,2013-01-03 11:48:00,
2013-01-03 05:53:00,22.6,19.3,30.50,NNW,335,0.0,0.0,87,0.00,,---,0.00,0.00,VWS V14.01,2013-01-03 11:53:00,
2013-01-03 05:58:00,22.4,19.1,30.50,NNW,335,0.0,0.0,87,0.00,,---,0.00,0.00,VWS V14.01,2013-01-03 11:58:00,
2013-01-03 06:03:00,22.4,19.1,30.50,NNW,335,0.0,0.0,87,0.00,,---,0.00,0.00,VWS V14.01,2013-01-03 12:03:00,
2013-01-03 06:08:00,22.4,19.4,30.50,NNW,335,0.0,0.0,88,0.00,,---,0.00,0.00,VWS V14.01,2013-01-03 12:08:00,
2013-01-03 06:13:00,22.4,19.1,30.51,NNW,335,0.0,0.0,87,0.00,,---,0.00,0.00,VWS V14.01,2013-01-03 12:13:00,
2013-01-03 06:18:00,22.4,19.1,30.51,NNW,335,0.0,0.0,87,0.00,,---,0.00,0.00,VWS V14.01,2013-01-03 12:18:00,
2013-01-03 06:23:00,22.4,19.1,30.51,NNW,335,0.0,0.0,87,0.00,,---,0.00,0.00,VWS V14.01,2013-01-03 12:23:00,
2013-01-03 06:28:00,22.4,19.1,30.51,NNW,335,0.0,0.0,87,0.00,,---,0.00,0.00,VWS V14.01,2013-01-03 12:28:00,
2013-01-03 06:33:00,22.5,19.2,30.51,NNW,335,0.0,0.0,87,0.00,,---,0.00,0.00,VWS V14.01,2013-01-03 12:33:00,
2013-01-03 06:38:00,22.6,19.3,30.51,NNW,335,0.0,0.0,87,0.00,,---,0.00,0.00,VWS V14.01,2013-01-03 12:38:00,
2013-01-03 06:43:00,22.6,19.3,30.51,NNW,334,0.0,0.0,87,0.00,,---,0.00,0.00,VWS V14.01,2013-01-03 12:43:00,
2013-01-03 06:48:00,22.6,19.3,30.51,NNW,334,0.0,0.0,87,0.00,,---,0.00,0.00,VWS V14.01,2013-01-03 12:48:00,
2013-01-03 06:53:00,22.6,19.3,30.51,NNW,334,0.0,0.0,87,0.00,,---,0.00,0.00,VWS V14.01,2013-01-03 12:53:00,
2013-01-03 06:58:00,22.6,19.3,30.51,NNW,334,0.0,0.0,87,0.00,,---,0.00,0.00,VWS V14.01,2013-01-03 12:58:00,
2013-01-03 07:03:00,22.6,19.3,30.52,NNW,334,0.0,0.0,87,0.00,,---,0.00,0.00,VWS V14.01,2013-01-03 13:03:00,
2013-01-03 07:08:00,22.6,19.3,30.52,NNW,334,0.0,0.0,87,0.00,,---,0.00,0.00,VWS V14.01,2013-01-03 13:08:00,
2013-01-03 07:13:00,22.5,19.2,30.52,NNW,334,0.0,0.0,87,0.00,,---,0.00,0.00,VWS V14.01,2013-01-03 13:13:00,
2013-01-03 07:18:00,22.4,19.1,30.52,NNW,334,0.0,0.0,87,0.00,,---,0.00,0.00,VWS V14.01,2013-01-03 13:18:00,
2013-01-03 07:23:00,22.1,18.8,30.52,NNW,334,0.0,0.0,87,0.00,,---,0.00,0.00,VWS V14.01,2013-01-03 13:23:00,
2013-01-03 07:28:00,22.1,18.8,30.53,NNW,334,0.0,0.0,87,0.00,,---,0.00,0.00,VWS V14.01,2013-01-03 13:28:00,
2013-01-03 07:33:00,22.0,18.7,30.53,NNW,334,0.0,0.0,87,0.00,,---,0.00,0.00,VWS V14.01,2013-01-03 13:33:00,
2013-01-03 07:38:00,22.0,18.7,30.53,NNW,334,0.0,0.0,87,0.00,,---,0.00,0.00,VWS V14.01,2013-01-03 13:38:00,
2013-01-03 07:43:00,21.9,18.6,30.53,NNW,334,0.0,0.0,87,0.00,,---,0.00,0.00,VWS V14.01,2013-01-03 13:43:00,
2013-01-03 07:48:00,21.9,18.6,30.53,NNW,334,0.0,0.0,87,0.00,,---,0.00,7.00,VWS V14.01,2013-01-03 13:48:00,
2013-01-03 07:53:00,22.0,18.7,30.53,NNW,334,0.0,0.0,87,0.00,,---,0.00,9.00,VWS V14.01,2013-01-03 13:53:00,
2013-01-03 07:58:00,22.2,18.9,30.54,NNW,334,0.0,0.0,87,0.00,,---,0.00,11.00,VWS V14.01,2013-01-03 13:58:00,
2013-01-03 08:03:00,22.3,19.0,30.53,NNW,334,0.0,0.0,87,0.00,,---,0.00,14.00,VWS V14.01,2013-01-03 14:03:00,
2013-01-03 08:08:00,22.4,19.1,30.54,NNW,334,0.0,0.0,87,0.00,,---,0.00,16.00,VWS V14.01,2013-01-03 14:08:00,
2013-01-03 08:13:00,22.2,18.7,30.53,NNW,334,0.0,0.0,86,0.00,,---,0.00,18.00,VWS V14.01,2013-01-03 14:13:00,
2013-01-03 08:18:00,22.3,19.0,30.53,NNW,334,0.0,0.0,87,0.00,,---,0.00,19.00,VWS V14.01,2013-01-03 14:18:00,
2013-01-03 08:23:00,22.4,19.1,30.54,NNW,334,0.0,0.0,87,0.00,,---,0.00,21.00,VWS V14.01,2013-01-03 14:23:00,
2013-01-03 08:28:00,22.8,19.5,30.54,NNW,334,0.0,0.0,87,0.00,,---,0.00,26.00,VWS V14.01,2013-01-03 14:28:00,
2013-01-03 08:33:00,23.4,20.1,30.54,NNW,334,0.0,0.0,87,0.00,,---,0.00,32.00,VWS V14.01,2013-01-03 14:33:00,
2013-01-03 08:38:00,24.2,20.9,30.54,NNW,334,0.0,0.0,87,0.00,,---,0.00,58.00,VWS V14.01,2013-01-03 14:38:00,
2013-01-03 08:43:00,24.9,21.6,30.54,NNW,327,5.0,7.0,87,0.00,,---,0.00,84.00,VWS V14.01,2013-01-03 14:43:00,
2013-01-03 08:48:00,25.3,21.7,30.54,NW,320,2.0,7.0,86,0.00,,---,0.00,107.00,VWS V14.01,2013-01-03 14:48:00,
2013-01-03 08:53:00,25.7,22.1,30.54,NW,318,3.0,7.0,86,0.00,,---,0.00,123.00,VWS V14.01,2013-01-03 14:53:00,
2013-01-03 08:58:00,26.3,22.4,30.54,NW,318,4.0,7.0,85,0.00,,---,0.00,134.00,VWS V14.01,2013-01-03 14:58:00,
2013-01-03 09:03:00,26.6,22.7,30.54,NW,317,1.0,5.0,85,0.00,,---,0.00,151.00,VWS V14.01,2013-01-03 15:03:00,
2013-01-03 09:08:00,27.3,23.4,30.54,NW,317,0.0,5.0,85,0.00,,---,0.00,178.00,VWS V14.01,2013-01-03 15:08:00,
2013-01-03 09:13:00,27.9,23.7,30.54,NW,317,0.0,5.0,84,0.00,,---,0.00,171.00,VWS V14.01,2013-01-03 15:13:00,
2013-01-03 09:18:00,28.5,24.0,30.55,NW,317,0.0,5.0,83,0.00,,---,0.00,213.00,VWS V14.01,2013-01-03 15:18:00,
2013-01-03 09:23:00,28.9,24.1,30.55,NW,317,3.0,5.0,82,0.00,,---,0.00,221.00,VWS V14.01,2013-01-03 15:23:00,
2013-01-03 09:28:00,29.6,24.5,30.55,NW,317,0.0,5.0,81,0.00,,---,0.00,236.00,VWS V14.01,2013-01-03 15:28:00,
2013-01-03 09:33:00,30.2,25.1,30.55,NW,317,1.0,5.0,81,0.00,,---,0.00,257.00,VWS V14.01,2013-01-03 15:33:00,
2013-01-03 09:38:00,31.8,26.6,30.55,NW,317,5.0,5.0,81,0.00,,---,0.00,272.00,VWS V14.01,2013-01-03 15:38:00,
2013-01-03 09:43:00,33.2,26.8,30.55,NW,314,4.0,7.0,77,0.00,,---,0.00,290.00,VWS V14.01,2013-01-03 15:43:00,
2013-01-03 09:48:00,34.1,26.7,30.56,NW,316,1.0,7.0,74,0.00,,---,0.00,315.00,VWS V14.01,2013-01-03 15:48:00,
2013-01-03 09:53:00,34.4,26.3,30.56,NNW,330,7.0,8.0,72,0.00,,---,0.00,341.00,VWS V14.01,2013-01-03 15:53:00,
2013-01-03 09:58:00,34.4,25.3,30.56,NNW,329,4.0,11.0,69,0.00,,---,0.00,360.00,VWS V14.01,2013-01-03 15:58:00,
2013-01-03 10:03:00,34.5,25.4,30.56,NW,309,5.0,9.0,69,0.00,,---,0.00,376.00,VWS V14.01,2013-01-03 16:03:00,
2013-01-03 10:08:00,34.8,25.3,30.56,NNW,338,4.0,9.0,68,0.00,,---,0.00,380.00,VWS V14.01,2013-01-03 16:08:00,
2013-01-03 10:13:00,35.2,25.4,30.57,NW,314,5.0,9.0,67,0.00,,---,0.00,385.00,VWS V14.01,2013-01-03 16:13:00,
2013-01-03 10:18:00,35.1,24.9,30.57,NNW,331,4.0,9.0,66,0.00,,---,0.00,397.00,VWS V14.01,2013-01-03 16:18:00,
2013-01-03 10:23:00,35.5,25.3,30.57,WNW,300,6.0,9.0,66,0.00,,---,0.00,408.00,VWS V14.01,2013-01-03 16:23:00,
2013-01-03 10:28:00,35.2,24.6,30.57,NW,315,0.0,9.0,65,0.00,,---,0.00,418.00,VWS V14.01,2013-01-03 16:28:00,
2013-01-03 10:33:00,35.5,24.5,30.57,NW,324,7.0,8.0,64,0.00,,---,0.00,429.00,VWS V14.01,2013-01-03 16:33:00,
2013-01-03 10:38:00,35.5,25.3,30.57,NW,313,4.0,9.0,66,0.00,,---,0.00,439.00,VWS V14.01,2013-01-03 16:38:00,
2013-01-03 10:43:00,36.2,25.2,30.57,NNW,338,4.0,9.0,64,0.00,,---,0.00,448.00,VWS V14.01,2013-01-03 16:43:00,
2013-01-03 10:48:00,36.4,25.0,30.57,NW,317,3.0,9.0,63,0.00,,---,0.00,459.00,VWS V14.01,2013-01-03 16:48:00,
2013-01-03 10:53:00,36.6,24.8,30.57,North,355,8.0,9.0,62,0.00,,---,0.00,469.00,VWS V14.01,2013-01-03 16:53:00,
2013-01-03 10:58:00,36.8,25.4,30.57,North,350,4.0,9.0,63,0.00,,---,0.00,478.00,VWS V14.01,2013-01-03 16:58:00,
2013-01-03 11:03:00,37.5,25.7,30.57,NW,316,6.0,9.0,62,0.00,,---,0.00,487.00,VWS V14.01,2013-01-03 17:03:00,
2013-01-03 11:08:00,37.2,24.6,30.57,NW,324,6.0,9.0,60,0.00,,---,0.00,496.00,VWS V14.01,2013-01-03 17:08:00,
2013-01-03 11:13:00,37.2,25.0,30.57,NNW,343,6.0,9.0,61,0.00,,---,0.00,504.00,VWS V14.01,2013-01-03 17:13:00,
2013-01-03 11:18:00,37.2,25.4,30.56,NNW,333,6.0,10.0,62,0.00,,---,0.00,510.00,VWS V14.01,2013-01-03 17:18:00,
2013-01-03 11:23:00,37.7,25.9,30.56,NW,315,6.0,10.0,62,0.00,,---,0.00,517.00,VWS V14.01,2013-01-03 17:23:00,
2013-01-03 11:28:00,38.1,25.5,30.56,North,355,5.0,10.0,60,0.00,,---,0.00,526.00,VWS V14.01,2013-01-03 17:28:00,
2013-01-03 11:33:00,38.1,25.9,30.56,NNW,342,9.0,9.0,61,0.00,,---,0.00,533.00,VWS V14.01,2013-01-03 17:33:00,
2013-01-03 11:38:00,38.3,25.6,30.56,NNW,344,6.0,9.0,60,0.00,,---,0.00,541.00,VWS V14.01,2013-01-03 17:38:00,
2013-01-03 11:43:00,38.8,26.1,30.55,North,355,6.0,9.0,60,0.00,,---,0.00,555.00,VWS V14.01,2013-01-03 17:43:00,
2013-01-03 11:48:00,39.6,26.5,30.55,North,360,5.0,9.0,59,0.00,,---,0.00,540.00,VWS V14.01,2013-01-03 17:48:00,
2013-01-03 11:53:00,40.0,26.0,30.55,NNE,21,6.0,9.0,57,0.00,,---,0.00,548.00,VWS V14.01,2013-01-03 17:53:00,
2013-01-03 11:58:00,39.6,25.6,30.54,North,9,3.0,9.0,57,0.00,,---,0.00,540.00,VWS V14.01,2013-01-03 17:58:00,
2013-01-03 12:03:00,40.3,26.3,30.54,North,350,4.0,6.0,57,0.00,,---,0.00,490.00,VWS V14.01,2013-01-03 18:03:00,
2013-01-03 12:08:00,40.5,25.6,30.53,North,350,0.0,8.0,55,0.00,,---,0.00,552.00,VWS V14.01,2013-01-03 18:08:00,
2013-01-03 12:13:00,40.8,25.9,30.53,NNE,28,2.0,8.0,55,0.00,,---,0.00,578.00,VWS V14.01,2013-01-03 18:13:00,
2013-01-03 12:18:00,41.3,25.9,30.53,NNE,21,5.0,8.0,54,0.00,,---,0.00,575.00,VWS V14.01,2013-01-03 18:18:00,
2013-01-03 12:23:00,42.0,26.1,30.52,North,360,6.0,8.0,53,0.00,,---,0.00,575.00,VWS V14.01,2013-01-03 18:23:00,
2013-01-03 12:28:00,42.3,25.5,30.52,North,355,4.0,9.0,51,0.00,,---,0.00,577.00,VWS V14.01,2013-01-03 18:28:00,
2013-01-03 12:33:00,42.8,25.5,30.52,North,5,7.0,11.0,50,0.00,,---,0.00,578.00,VWS V14.01,2013-01-03 18:33:00,
2013-01-03 12:38:00,42.7,24.9,30.51,NNW,346,3.0,11.0,49,0.00,,---,0.00,580.00,VWS V14.01,2013-01-03 18:38:00,
2013-01-03 12:43:00,42.8,25.0,30.51,North,360,6.0,11.0,49,0.00,,---,0.00,582.00,VWS V14.01,2013-01-03 18:43:00,
2013-01-03 12:48:00,43.4,25.0,30.51,NE,50,10.0,11.0,48,0.00,,---,0.00,582.00,VWS V14.01,2013-01-03 18:48:00,
2013-01-03 12:53:00,43.5,24.6,30.51,North,5,7.0,11.0,47,0.00,,---,0.00,580.00,VWS V14.01,2013-01-03 18:53:00,
2013-01-03 12:58:00,43.1,24.8,30.50,North,5,5.0,11.0,48,0.00,,---,0.00,577.00,VWS V14.01,2013-01-03 18:58:00,
2013-01-03 13:03:00,43.5,25.6,30.50,North,11,6.0,8.0,49,0.00,,---,0.00,571.00,VWS V14.01,2013-01-03 19:03:00,
2013-01-03 13:08:00,43.6,24.7,30.50,WNW,298,9.0,11.0,47,0.00,,---,0.00,526.00,VWS V14.01,2013-01-03 19:08:00,
2013-01-03 13:13:00,43.7,24.8,30.50,North,360,10.0,11.0,47,0.00,,---,0.00,554.00,VWS V14.01,2013-01-03 19:13:00,
2013-01-03 13:18:00,43.8,24.9,30.49,NNW,344,4.0,11.0,47,0.00,,---,0.00,564.00,VWS V14.01,2013-01-03 19:18:00,
2013-01-03 13:54:00,44.9,23.2,30.48,NNW,331,6.0,11.0,42,0.00,,---,0.00,503.00,VWS V14.01,2013-01-03 19:54:00,
2013-01-03 13:59:00,45.4,23.1,30.48,North,9,7.0,11.0,41,0.00,,---,0.00,531.00,VWS V14.01,2013-01-03 19:59:00,
2013-01-03 14:04:00,45.4,23.7,30.48,North,5,5.0,8.0,42,0.00,,---,0.00,512.00,VWS V14.01,2013-01-03 20:04:00,
2013-01-03 14:09:00,45.3,23.6,30.48,North,5,5.0,9.0,42,0.00,,---,0.00,510.00,VWS V14.01,2013-01-03 20:09:00,
2013-01-03 14:14:00,45.2,23.5,30.48,NNE,22,0.0,9.0,42,0.00,,---,0.00,497.00,VWS V14.01,2013-01-03 20:14:00,
2013-01-03 14:19:00,45.0,23.3,30.48,NNE,28,4.0,9.0,42,0.00,,---,0.00,496.00,VWS V14.01,2013-01-03 20:19:00,
2013-01-03 14:24:00,45.3,23.0,30.48,North,350,2.0,10.0,41,0.00,,---,0.00,489.00,VWS V14.01,2013-01-03 20:24:00,
2013-01-03 14:29:00,45.7,23.4,30.47,NNE,19,8.0,10.0,41,0.00,,---,0.00,485.00,VWS V14.01,2013-01-03 20:29:00,
2013-01-03 14:34:00,45.3,23.6,30.48,NNE,24,4.0,9.0,42,0.00,,---,0.00,475.00,VWS V14.01,2013-01-03 20:34:00,
2013-01-03 14:39:00,45.9,24.1,30.48,NNE,22,4.0,9.0,42,0.00,,---,0.00,397.00,VWS V14.01,2013-01-03 20:39:00,
2013-01-03 14:44:00,46.0,21.2,30.47,NW,321,1.0,10.0,37,0.00,,---,0.00,399.00,VWS V14.01,2013-01-03 20:44:00,
2013-01-03 14:49:00,46.0,21.2,30.47,North,360,4.0,10.0,37,0.00,,---,0.00,396.00,VWS V14.01,2013-01-03 20:49:00,
2013-01-03 14:54:00,46.2,22.0,30.47,NNE,27,4.0,10.0,38,0.00,,---,0.00,436.00,VWS V14.01,2013-01-03 20:54:00,
2013-01-03 14:59:00,46.6,21.7,30.47,North,355,3.0,10.0,37,0.00,,---,0.00,415.00,VWS V14.01,2013-01-03 20:59:00,
2013-01-03 15:04:00,46.4,21.6,30.47,NNW,333,6.0,10.0,37,0.00,,---,0.00,418.00,VWS V14.01,2013-01-03 21:04:00,
2013-01-03 15:09:00,46.1,21.3,30.47,NW,313,7.0,10.0,37,0.00,,---,0.00,406.00,VWS V14.01,2013-01-03 21:09:00,
2013-01-03 15:14:00,46.0,21.2,30.47,NNE,18,1.0,11.0,37,0.00,,---,0.00,369.00,VWS V14.01,2013-01-03 21:14:00,
2013-01-03 15:19:00,46.2,21.4,30.47,NNE,13,5.0,11.0,37,0.00,,---,0.00,383.00,VWS V14.01,2013-01-03 21:19:00,
2013-01-03 15:24:00,46.2,21.4,30.47,North,355,9.0,11.0,37,0.00,,---,0.00,381.00,VWS V14.01,2013-01-03 21:24:00,
2013-01-03 15:29:00,46.0,21.2,30.46,North,360,0.0,11.0,37,0.00,,---,0.00,366.00,VWS V14.01,2013-01-03 21:29:00,
2013-01-03 15:34:00,46.5,22.3,30.47,NW,319,5.0,10.0,38,0.00,,---,0.00,346.00,VWS V14.01,2013-01-03 21:34:00,
2013-01-03 15:39:00,46.0,21.8,30.47,NW,310,6.0,10.0,38,0.00,,---,0.00,330.00,VWS V14.01,2013-01-03 21:39:00,
2013-01-03 15:44:00,45.8,21.6,30.47,NW,321,2.0,10.0,38,0.00,,---,0.00,304.00,VWS V14.01,2013-01-03 21:44:00,
2013-01-03 15:49:00,45.7,21.6,30.47,NNE,30,1.0,10.0,38,0.00,,---,0.00,301.00,VWS V14.01,2013-01-03 21:49:00,
2013-01-03 15:54:00,46.2,22.0,30.47,NNE,26,4.0,10.0,38,0.00,,---,0.00,281.00,VWS V14.01,2013-01-03 21:54:00,
2013-01-03 15:59:00,46.1,21.9,30.47,North,350,4.0,10.0,38,0.00,,---,0.00,265.00,VWS V14.01,2013-01-03 21:59:00,
2013-01-03 16:04:00,45.8,21.6,30.47,NNE,16,4.0,9.0,38,0.00,,---,0.00,244.00,VWS V14.01,2013-01-03 22:04:00,
2013-01-03 16:09:00,45.5,21.4,30.47,North,5,1.0,9.0,38,0.00,,---,0.00,221.00,VWS V14.01,2013-01-03 22:09:00,
2013-01-03 16:14:00,45.2,21.7,30.47,North,5,4.0,9.0,39,0.00,,---,0.00,206.00,VWS V14.01,2013-01-03 22:14:00,
2013-01-03 16:19:00,45.4,21.3,30.47,North,360,5.0,9.0,38,0.00,,---,0.00,181.00,VWS V14.01,2013-01-03 22:19:00,
2013-01-03 16:24:00,45.6,21.5,30.47,NNW,348,2.0,9.0,38,0.00,,---,0.00,163.00,VWS V14.01,2013-01-03 22:24:00,
2013-01-03 16:29:00,45.3,21.2,30.48,North,360,0.0,9.0,38,0.00,,---,0.00,149.00,VWS V14.01,2013-01-03 22:29:00,
2013-01-03 16:34:00,45.2,21.7,30.47,North,355,4.0,8.0,39,0.00,,---,0.00,137.00,VWS V14.01,2013-01-03 22:34:00,
2013-01-03 16:39:00,45.1,21.6,30.47,North,350,2.0,8.0,39,0.00,,---,0.00,111.00,VWS V14.01,2013-01-03 22:39:00,
2013-01-03 16:44:00,44.8,21.4,30.47,NNE,20,5.0,8.0,39,0.00,,---,0.00,79.00,VWS V14.01,2013-01-03 22:44:00,
2013-01-03 16:49:00,44.6,21.8,30.48,NNE,20,0.0,8.0,40,0.00,,---,0.00,69.00,VWS V14.01,2013-01-03 22:49:00,
2013-01-03 16:54:00,44.7,21.9,30.48,NNE,20,0.0,8.0,40,0.00,,---,0.00,72.00,VWS V14.01,2013-01-03 22:54:00,
2013-01-03 16:59:00,44.4,21.6,30.48,NNE,20,0.0,8.0,40,0.00,,---,0.00,60.00,VWS V14.01,2013-01-03 22:59:00,
2013-01-03 17:04:00,44.3,22.1,30.48,NNE,20,0.0,1.0,41,0.00,,---,0.00,49.00,VWS V14.01,2013-01-03 23:04:00,
2013-01-03 17:09:00,44.1,21.9,30.47,NNE,20,0.0,1.0,41,0.00,,---,0.00,26.00,VWS V14.01,2013-01-03 23:09:00,
2013-01-03 17:14:00,43.8,21.6,30.48,NNE,20,0.0,1.0,41,0.00,,---,0.00,21.00,VWS V14.01,2013-01-03 23:14:00,
2013-01-03 17:19:00,43.4,21.9,30.48,NNE,20,0.0,1.0,42,0.00,,---,0.00,16.00,VWS V14.01,2013-01-03 23:19:00,
2013-01-03 17:24:00,43.1,22.1,30.48,NNE,20,0.0,1.0,43,0.00,,---,0.00,12.00,VWS V14.01,2013-01-03 23:24:00,
2013-01-03 17:29:00,42.7,21.8,30.48,NNE,20,0.0,1.0,43,0.00,,---,0.00,11.00,VWS V14.01,2013-01-03 23:29:00,
2013-01-03 17:34:00,42.4,22.0,30.48,NNE,20,0.0,0.0,44,0.00,,---,0.00,7.00,VWS V14.01,2013-01-03 23:34:00,
2013-01-03 17:39:00,42.1,21.8,30.48,NNE,20,0.0,0.0,44,0.00,,---,0.00,5.00,VWS V14.01,2013-01-03 23:39:00,
2013-01-03 17:44:00,41.7,21.9,30.48,NNE,20,0.0,0.0,45,0.00,,---,0.00,0.00,VWS V14.01,2013-01-03 23:44:00,
2013-01-03 17:49:00,41.2,21.5,30.48,NNE,20,0.0,0.0,45,0.00,,---,0.00,0.00,VWS V14.01,2013-01-03 23:49:00,
2013-01-03 17:54:00,40.9,21.7,30.49,NNE,20,0.0,0.0,46,0.00,,---,0.00,0.00,VWS V14.01,2013-01-03 23:54:00,
2013-01-03 17:59:00,40.6,21.5,30.49,NNE,20,0.0,0.0,46,0.00,,---,0.00,0.00,VWS V14.01,2013-01-03 23:59:00,
2013-01-03 18:04:00,40.4,21.3,30.49,NNE,20,0.0,0.0,46,0.00,,---,0.00,0.00,VWS V14.01,2013-01-04 00:04:00,
2013-01-03 18:09:00,40.1,21.5,30.49,NNE,20,0.0,0.0,47,0.00,,---,0.00,0.00,VWS V14.01,2013-01-04 00:09:00,
2013-01-03 18:14:00,39.6,21.0,30.48,NNE,20,0.0,0.0,47,0.00,,---,0.00,0.00,VWS V14.01,2013-01-04 00:14:00,
2013-01-03 18:19:00,38.3,20.8,30.48,NNE,20,0.0,0.0,49,0.00,,---,0.00,0.00,VWS V14.01,2013-01-04 00:19:00,
2013-01-03 18:24:00,37.0,21.5,30.48,NNE,20,0.0,0.0,53,0.00,,---,0.00,0.00,VWS V14.01,2013-01-04 00:24:00,
2013-01-03 18:29:00,36.7,21.2,30.48,NNE,20,0.0,0.0,53,0.00,,---,0.00,0.00,VWS V14.01,2013-01-04 00:29:00,
2013-01-03 18:34:00,36.2,21.6,30.48,NNE,20,0.0,0.0,55,0.00,,---,0.00,0.00,VWS V14.01,2013-01-04 00:34:00,
2013-01-03 18:39:00,35.2,21.5,30.49,NNE,20,0.0,0.0,57,0.00,,---,0.00,0.00,VWS V14.01,2013-01-04 00:39:00,
2013-01-03 18:44:00,34.9,21.6,30.48,NNE,20,0.0,0.0,58,0.00,,---,0.00,0.00,VWS V14.01,2013-01-04 00:44:00,
2013-01-03 18:49:00,34.4,21.6,30.48,NNE,20,0.0,0.0,59,0.00,,---,0.00,0.00,VWS V14.01,2013-01-04 00:49:00,
2013-01-03 18:54:00,34.5,22.1,30.48,NNE,20,0.0,0.0,60,0.00,,---,0.00,0.00,VWS V14.01,2013-01-04 00:54:00,
2013-01-03 18:59:00,34.8,22.3,30.48,NNE,20,0.0,0.0,60,0.00,,---,0.00,0.00,VWS V14.01,2013-01-04 00:59:00,
2013-01-03 19:04:00,35.0,22.1,30.48,NNE,20,0.0,0.0,59,0.00,,---,0.00,0.00,VWS V14.01,2013-01-04 01:04:00,
2013-01-03 19:09:00,34.5,22.1,30.48,NNE,20,0.0,0.0,60,0.00,,---,0.00,0.00,VWS V14.01,2013-01-04 01:09:00,
2013-01-03 19:14:00,34.0,22.0,30.48,NNE,20,0.0,0.0,61,0.00,,---,0.00,0.00,VWS V14.01,2013-01-04 01:14:00,
2013-01-03 19:19:00,34.1,22.1,30.48,NNE,20,0.0,0.0,61,0.00,,---,0.00,0.00,VWS V14.01,2013-01-04 01:19:00,
2013-01-03 19:24:00,33.8,21.8,30.48,NNE,20,0.0,0.0,61,0.00,,---,0.00,0.00,VWS V14.01,2013-01-04 01:24:00,
2013-01-03 19:29:00,33.3,21.7,30.48,NNE,20,0.0,0.0,62,0.00,,---,0.00,0.00,VWS V14.01,2013-01-04 01:29:00,
2013-01-03 19:34:00,32.6,21.8,30.48,NNE,20,0.0,0.0,64,0.00,,---,0.00,0.00,VWS V14.01,2013-01-04 01:34:00,
2013-01-03 19:39:00,31.9,22.2,30.48,NNE,20,0.0,0.0,67,0.00,,---,0.00,0.00,VWS V14.01,2013-01-04 01:39:00,
2013-01-03 19:44:00,31.5,22.2,30.49,NNE,20,0.0,0.0,68,0.00,,---,0.00,0.00,VWS V14.01,2013-01-04 01:44:00,
2013-01-03 19:49:00,31.4,22.4,30.50,NNE,20,0.0,0.0,69,0.00,,---,0.00,0.00,VWS V14.01,2013-01-04 01:49:00,
2013-01-03 19:54:00,31.6,23.0,30.50,NNE,20,0.0,0.0,70,0.00,,---,0.00,0.00,VWS V14.01,2013-01-04 01:54:00,
2013-01-03 19:59:00,31.5,22.9,30.50,NNE,20,0.0,0.0,70,0.00,,---,0.00,0.00,VWS V14.01,2013-01-04 01:59:00,
2013-01-03 20:04:00,31.3,22.7,30.51,NNE,20,0.0,0.0,70,0.00,,---,0.00,0.00,VWS V14.01,2013-01-04 02:04:00,
2013-01-03 20:09:00,31.7,22.7,30.51,NNE,20,0.0,0.0,69,0.00,,---,0.00,0.00,VWS V14.01,2013-01-04 02:09:00,
2013-01-03 20:14:00,31.6,22.3,30.51,NNE,20,0.0,0.0,68,0.00,,---,0.00,0.00,VWS V14.01,2013-01-04 02:14:00,
2013-01-03 20:19:00,30.8,21.9,30.50,NNE,20,0.0,0.0,69,0.00,,---,0.00,0.00,VWS V14.01,2013-01-04 02:19:00,
2013-01-03 20:24:00,30.3,22.0,30.50,NNE,20,0.0,0.0,71,0.00,,---,0.00,0.00,VWS V14.01,2013-01-04 02:24:00,
2013-01-03 20:29:00,29.9,21.7,30.50,NNE,20,0.0,0.0,71,0.00,,---,0.00,0.00,VWS V14.01,2013-01-04 02:29:00,
2013-01-03 20:34:00,29.8,21.6,30.51,NNE,20,0.0,0.0,71,0.00,,---,0.00,0.00,VWS V14.01,2013-01-04 02:34:00,
2013-01-03 20:39:00,29.3,21.1,30.51,NNE,20,0.0,0.0,71,0.00,,---,0.00,0.00,VWS V14.01,2013-01-04 02:39:00,
2013-01-03 20:44:00,28.9,21.0,30.51,NNE,20,0.0,0.0,72,0.00,,---,0.00,0.00,VWS V14.01,2013-01-04 02:44:00,
2013-01-03 20:49:00,28.7,20.8,30.51,NNE,20,0.0,0.0,72,0.00,,---,0.00,0.00,VWS V14.01,2013-01-04 02:49:00,
2013-01-03 20:54:00,29.0,21.1,30.51,NNE,20,0.0,0.0,72,0.00,,---,0.00,0.00,VWS V14.01,2013-01-04 02:54:00,
2013-01-03 20:59:00,29.3,21.4,30.51,NNE,20,0.0,0.0,72,0.00,,---,0.00,0.00,VWS V14.01,2013-01-04 02:59:00,
2013-01-03 21:04:00,29.4,21.5,30.51,NNE,20,0.0,0.0,72,0.00,,---,0.00,0.00,VWS V14.01,2013-01-04 03:04:00,
2013-01-03 21:09:00,29.0,21.1,30.51,NNE,20,0.0,0.0,72,0.00,,---,0.00,0.00,VWS V14.01,2013-01-04 03:09:00,
2013-01-03 21:14:00,28.5,21.0,30.50,NNE,20,0.0,0.0,73,0.00,,---,0.00,0.00,VWS V14.01,2013-01-04 03:14:00,
2013-01-03 21:19:00,27.8,20.9,30.50,NNE,20,0.0,0.0,75,0.00,,---,0.00,0.00,VWS V14.01,2013-01-04 03:19:00,
2013-01-03 21:24:00,27.6,21.0,30.50,NNE,20,0.0,0.0,76,0.00,,---,0.00,0.00,VWS V14.01,2013-01-04 03:24:00,
2013-01-03 21:29:00,27.3,20.8,30.50,NNE,20,0.0,0.0,76,0.00,,---,0.00,0.00,VWS V14.01,2013-01-04 03:29:00,
2013-01-03 21:34:00,27.1,21.2,30.50,NNE,20,0.0,0.0,78,0.00,,---,0.00,0.00,VWS V14.01,2013-01-04 03:34:00,
2013-01-03 21:39:00,26.9,21.0,30.51,NNE,20,0.0,0.0,78,0.00,,---,0.00,0.00,VWS V14.01,2013-01-04 03:39:00,
2013-01-03 21:44:00,27.2,21.3,30.51,NNE,20,0.0,0.0,78,0.00,,---,0.00,0.00,VWS V14.01,2013-01-04 03:44:00,
2013-01-03 21:49:00,27.6,21.0,30.51,NNE,20,0.0,0.0,76,0.00,,---,0.00,0.00,VWS V14.01,2013-01-04 03:49:00,
2013-01-03 21:54:00,27.5,20.9,30.51,NNE,20,0.0,0.0,76,0.00,,---,0.00,0.00,VWS V14.01,2013-01-04 03:54:00,
2013-01-03 21:59:00,26.6,19.8,30.51,NNE,20,0.0,0.0,75,0.00,,---,0.00,0.00,VWS V14.01,2013-01-04 03:59:00,
2013-01-03 22:04:00,25.7,19.5,30.51,NNE,20,0.0,0.0,77,0.00,,---,0.00,0.00,VWS V14.01,2013-01-04 04:04:00,
2013-01-03 22:09:00,25.6,19.4,30.51,NNE,20,0.0,0.0,77,0.00,,---,0.00,0.00,VWS V14.01,2013-01-04 04:09:00,
2013-01-03 22:14:00,25.3,19.4,30.52,NNE,20,0.0,0.0,78,0.00,,---,0.00,0.00,VWS V14.01,2013-01-04 04:14:00,
2013-01-03 22:19:00,25.6,20.3,30.52,NNE,20,0.0,0.0,80,0.00,,---,0.00,0.00,VWS V14.01,2013-01-04 04:19:00,
2013-01-03 22:24:00,25.6,20.3,30.52,NNE,20,0.0,0.0,80,0.00,,---,0.00,0.00,VWS V14.01,2013-01-04 04:24:00,
2013-01-03 22:29:00,25.8,20.8,30.52,NNE,20,0.0,0.0,81,0.00,,---,0.00,0.00,VWS V14.01,2013-01-04 04:29:00,
2013-01-03 22:34:00,26.1,20.8,30.52,NNE,20,0.0,0.0,80,0.00,,---,0.00,0.00,VWS V14.01,2013-01-04 04:34:00,
2013-01-03 22:39:00,26.3,21.3,30.52,NNE,20,0.0,0.0,81,0.00,,---,0.00,0.00,VWS V14.01,2013-01-04 04:39:00,
2013-01-03 22:44:00,26.1,20.5,30.52,NNE,20,0.0,0.0,79,0.00,,---,0.00,0.00,VWS V14.01,2013-01-04 04:44:00,
2013-01-03 22:49:00,26.3,21.3,30.52,NNE,20,0.0,0.0,81,0.00,,---,0.00,0.00,VWS V14.01,2013-01-04 04:49:00,
2013-01-03 22:54:00,26.5,21.2,30.52,NNE,20,0.0,0.0,80,0.00,,---,0.00,0.00,VWS V14.01,2013-01-04 04:54:00,
2013-01-03 22:59:00,26.4,20.8,30.53,NNE,20,0.0,0.0,79,0.00,,---,0.00,0.00,VWS V14.01,2013-01-04 04:59:00,
2013-01-03 23:00:00,26.4,20.8,30.53,NNE,20,0.0,0.0,79,0.00,,---,0.00,0.00,VWS V14.01,2013-01-04 05:00:00,
2013-01-03 23:02:00,26.3,20.7,30.53,NNE,20,0.0,0.0,79,0.00,,---,0.00,0.00,VWS V14.01,2013-01-04 05:02:00,
2013-01-03 23:07:00,26.1,20.2,30.54,NNE,20,0.0,0.0,78,0.00,,---,0.00,0.00,VWS V14.01,2013-01-04 05:07:00,
2013-01-03 23:12:00,26.3,20.4,30.54,NNE,20,0.0,0.0,78,0.00,,---,0.00,0.00,VWS V14.01,2013-01-04 05:12:00,
2013-01-03 23:17:00,26.5,20.6,30.53,NNE,20,0.0,0.0,78,0.00,,---,0.00,0.00,VWS V14.01,2013-01-04 05:17:00,
2013-01-03 23:22:00,26.5,20.9,30.52,NNE,20,0.0,0.0,79,0.00,,---,0.00,0.00,VWS V14.01,2013-01-04 05:22:00,
2013-01-03 23:27:00,26.2,20.6,30.52,NNE,20,0.0,0.0,79,0.00,,---,0.00,0.00,VWS V14.01,2013-01-04 05:27:00,
2013-01-03 23:32:00,26.0,20.7,30.53,NNE,20,0.0,0.0,80,0.00,,---,0.00,0.00,VWS V14.01,2013-01-04 05:32:00,
2013-01-03 23:37:00,26.3,21.3,30.52,NNE,20,0.0,0.0,81,0.00,,---,0.00,0.00,VWS V14.01,2013-01-04 05:37:00,
2013-01-03 23:42:00,26.3,21.0,30.52,NNE,20,0.0,0.0,80,0.00,,---,0.00,0.00,VWS V14.01,2013-01-04 05:42:00,
2013-01-03 23:47:00,26.5,21.5,30.52,NNE,20,0.0,0.0,81,0.00,,---,0.00,0.00,VWS V14.01,2013-01-04 05:47:00,
2013-01-03 23:52:00,26.6,21.6,30.52,NNE,20,0.0,0.0,81,0.00,,---,0.00,0.00,VWS V14.01,2013-01-04 05:52:00,
2013-01-03 23:57:00,27.0,21.7,30.52,NNE,20,0.0,0.0,80,0.00,,---,0.00,0.00,VWS V14.01,2013-01-04 05:57:00,